sensor_id;sensor_type;location;lat;lon;timestamp;temperature;humidity
13049;DHT22;6591;51.446;5.404;2023-02-21T00:01:44;11.00;99.90
13049;DHT22;6591;51.446;5.404;2023-02-21T00:04:30;11.00;99.90
13049;DHT22;6591;51.446;5.404;2023-02-21T00:07:16;11.00;99.90
13049;DHT22;6591;51.446;5.404;2023-02-21T00:10:02;12.10;99.90
13049;DHT22;6591;51.446;5.404;2023-02-21T00:12:49;11.70;99.90
13049;DHT22;6591;51.446;5.404;2023-02-21T00:15:35;11.00;99.90
13049;DHT22;6591;51.446;5.404;2023-02-21T00:18:20;11.00;99.90
13049;DHT22;6591;51.446;5.404;2023-02-21T00:21:06;11.00;99.90
13049;DHT22;6591;51.446;5.404;2023-02-21T00:23:52;11.00;99.90
13049;DHT22;6591;51.446;5.404;2023-02-21T00:26:37;11.00;99.90
13049;DHT22;6591;51.446;5.404;2023-02-21T00:29:23;12.40;99.90
13049;DHT22;6591;51.446;5.404;2023-02-21T00:32:09;11.00;99.90
13049;DHT22;6591;51.446;5.404;2023-02-21T00:34:54;11.00;99.90
13049;DHT22;6591;51.446;5.404;2023-02-21T00:37:40;11.00;99.90
13049;DHT22;6591;51.446;5.404;2023-02-21T00:40:25;11.00;99.90
13049;DHT22;6591;51.446;5.404;2023-02-21T00:43:11;11.70;99.90
13049;DHT22;6591;51.446;5.404;2023-02-21T00:45:56;10.90;99.90
13049;DHT22;6591;51.446;5.404;2023-02-21T00:48:42;11.00;99.90
13049;DHT22;6591;51.446;5.404;2023-02-21T00:51:27;10.90;99.90
13049;DHT22;6591;51.446;5.404;2023-02-21T00:54:13;10.90;99.90
13049;DHT22;6591;51.446;5.404;2023-02-21T00:56:58;11.20;99.90
13049;DHT22;6591;51.446;5.404;2023-02-21T00:59:44;10.90;99.90
13049;DHT22;6591;51.446;5.404;2023-02-21T01:02:29;11.20;99.90
13049;DHT22;6591;51.446;5.404;2023-02-21T01:05:15;10.90;99.90
13049;DHT22;6591;51.446;5.404;2023-02-21T01:08:03;10.90;99.90
13049;DHT22;6591;51.446;5.404;2023-02-21T01:10:49;10.90;99.90
13049;DHT22;6591;51.446;5.404;2023-02-21T01:13:38;10.90;99.90
13049;DHT22;6591;51.446;5.404;2023-02-21T01:16:23;10.80;99.90
13049;DHT22;6591;51.446;5.404;2023-02-21T01:19:12;10.80;99.90
13049;DHT22;6591;51.446;5.404;2023-02-21T01:22:00;10.80;99.90
13049;DHT22;6591;51.446;5.404;2023-02-21T01:24:50;10.80;99.90
13049;DHT22;6591;51.446;5.404;2023-02-21T01:27:36;11.40;99.90
13049;DHT22;6591;51.446;5.404;2023-02-21T01:30:23;11.50;99.90
13049;DHT22;6591;51.446;5.404;2023-02-21T01:33:10;10.80;99.90
13049;DHT22;6591;51.446;5.404;2023-02-21T01:35:56;11.30;99.90
13049;DHT22;6591;51.446;5.404;2023-02-21T01:38:42;10.80;99.90
13049;DHT22;6591;51.446;5.404;2023-02-21T01:41:28;10.80;99.90
13049;DHT22;6591;51.446;5.404;2023-02-21T01:44:28;10.80;99.90
13049;DHT22;6591;51.446;5.404;2023-02-21T01:47:27;10.70;99.90
13049;DHT22;6591;51.446;5.404;2023-02-21T01:50:24;10.70;99.90
13049;DHT22;6591;51.446;5.404;2023-02-21T01:53:24;10.70;99.90
13049;DHT22;6591;51.446;5.404;2023-02-21T01:56:12;10.70;99.90
13049;DHT22;6591;51.446;5.404;2023-02-21T01:58:59;10.70;99.90
13049;DHT22;6591;51.446;5.404;2023-02-21T02:01:58;10.70;99.90
13049;DHT22;6591;51.446;5.404;2023-02-21T02:04:59;10.70;99.90
13049;DHT22;6591;51.446;5.404;2023-02-21T02:07:46;10.80;99.90
13049;DHT22;6591;51.446;5.404;2023-02-21T02:10:33;10.70;99.90
13049;DHT22;6591;51.446;5.404;2023-02-21T02:16:41;12.30;99.90
13049;DHT22;6591;51.446;5.404;2023-02-21T02:19:47;10.60;99.90
13049;DHT22;6591;51.446;5.404;2023-02-21T02:32:22;10.60;99.90
13049;DHT22;6591;51.446;5.404;2023-02-21T02:35:08;10.60;99.90
13049;DHT22;6591;51.446;5.404;2023-02-21T02:37:49;10.50;99.90
13049;DHT22;6591;51.446;5.404;2023-02-21T02:41:05;10.60;99.90
13049;DHT22;6591;51.446;5.404;2023-02-21T02:44:12;10.50;99.90
13049;DHT22;6591;51.446;5.404;2023-02-21T02:46:46;10.50;99.90
13049;DHT22;6591;51.446;5.404;2023-02-21T02:49:20;11.70;99.90
13049;DHT22;6591;51.446;5.404;2023-02-21T02:51:54;10.50;99.90
13049;DHT22;6591;51.446;5.404;2023-02-21T02:54:28;10.50;99.90
13049;DHT22;6591;51.446;5.404;2023-02-21T02:56:56;10.50;99.90
13049;DHT22;6591;51.446;5.404;2023-02-21T02:59:26;10.50;99.90
13049;DHT22;6591;51.446;5.404;2023-02-21T03:05:13;10.50;99.90
13049;DHT22;6591;51.446;5.404;2023-02-21T03:11:07;10.50;99.90
13049;DHT22;6591;51.446;5.404;2023-02-21T03:13:44;12.00;99.90
13049;DHT22;6591;51.446;5.404;2023-02-21T03:16:45;10.40;99.90
13049;DHT22;6591;51.446;5.404;2023-02-21T03:19:30;10.50;99.90
13049;DHT22;6591;51.446;5.404;2023-02-21T03:22:07;10.40;99.90
13049;DHT22;6591;51.446;5.404;2023-02-21T03:24:41;10.40;99.90
13049;DHT22;6591;51.446;5.404;2023-02-21T03:27:12;11.20;99.90
13049;DHT22;6591;51.446;5.404;2023-02-21T03:29:51;10.40;99.90
13049;DHT22;6591;51.446;5.404;2023-02-21T03:32:26;10.40;99.90
13049;DHT22;6591;51.446;5.404;2023-02-21T03:35:02;10.40;99.90
13049;DHT22;6591;51.446;5.404;2023-02-21T03:40:10;10.40;99.90
13049;DHT22;6591;51.446;5.404;2023-02-21T03:42:45;10.40;99.90
13049;DHT22;6591;51.446;5.404;2023-02-21T03:45:15;11.00;99.90
13049;DHT22;6591;51.446;5.404;2023-02-21T03:47:48;10.40;99.90
13049;DHT22;6591;51.446;5.404;2023-02-21T03:50:17;10.50;99.90
13049;DHT22;6591;51.446;5.404;2023-02-21T03:52:45;11.50;99.90
13049;DHT22;6591;51.446;5.404;2023-02-21T03:55:13;10.50;99.90
13049;DHT22;6591;51.446;5.404;2023-02-21T03:57:41;10.40;99.90
13049;DHT22;6591;51.446;5.404;2023-02-21T04:00:09;10.50;99.90
13049;DHT22;6591;51.446;5.404;2023-02-21T04:02:43;10.50;99.90
13049;DHT22;6591;51.446;5.404;2023-02-21T04:05:21;10.50;99.90
13049;DHT22;6591;51.446;5.404;2023-02-21T04:07:48;10.50;99.90
13049;DHT22;6591;51.446;5.404;2023-02-21T04:10:15;10.50;99.90
13049;DHT22;6591;51.446;5.404;2023-02-21T04:12:44;10.50;99.90
13049;DHT22;6591;51.446;5.404;2023-02-21T04:15:11;10.50;99.90
13049;DHT22;6591;51.446;5.404;2023-02-21T04:17:39;11.80;99.90
13049;DHT22;6591;51.446;5.404;2023-02-21T04:20:08;10.50;99.90
13049;DHT22;6591;51.446;5.404;2023-02-21T04:22:41;10.50;99.90
13049;DHT22;6591;51.446;5.404;2023-02-21T04:25:14;10.50;99.90
13049;DHT22;6591;51.446;5.404;2023-02-21T04:27:47;10.50;99.90
13049;DHT22;6591;51.446;5.404;2023-02-21T04:30:15;10.80;99.90
13049;DHT22;6591;51.446;5.404;2023-02-21T04:32:42;10.60;99.90
13049;DHT22;6591;51.446;5.404;2023-02-21T04:35:12;10.50;99.90
13049;DHT22;6591;51.446;5.404;2023-02-21T04:37:42;10.40;99.90
13049;DHT22;6591;51.446;5.404;2023-02-21T04:40:12;10.40;99.90
13049;DHT22;6591;51.446;5.404;2023-02-21T04:42:39;10.40;99.90
13049;DHT22;6591;51.446;5.404;2023-02-21T04:45:07;10.40;99.90
13049;DHT22;6591;51.446;5.404;2023-02-21T04:47:35;10.40;99.90
13049;DHT22;6591;51.446;5.404;2023-02-21T04:50:03;10.40;99.90
13049;DHT22;6591;51.446;5.404;2023-02-21T04:52:31;10.40;99.90
13049;DHT22;6591;51.446;5.404;2023-02-21T04:54:58;10.40;99.90
13049;DHT22;6591;51.446;5.404;2023-02-21T04:57:25;10.40;99.90
13049;DHT22;6591;51.446;5.404;2023-02-21T04:59:57;10.50;99.90
13049;DHT22;6591;51.446;5.404;2023-02-21T05:02:26;10.40;99.90
13049;DHT22;6591;51.446;5.404;2023-02-21T05:04:53;10.40;99.90
13049;DHT22;6591;51.446;5.404;2023-02-21T05:07:21;10.40;99.90
13049;DHT22;6591;51.446;5.404;2023-02-21T05:09:48;10.40;99.90
13049;DHT22;6591;51.446;5.404;2023-02-21T05:12:15;10.40;99.90
13049;DHT22;6591;51.446;5.404;2023-02-21T05:14:42;10.40;99.90
13049;DHT22;6591;51.446;5.404;2023-02-21T05:17:09;10.40;99.90
13049;DHT22;6591;51.446;5.404;2023-02-21T05:19:36;10.40;99.90
13049;DHT22;6591;51.446;5.404;2023-02-21T05:22:04;10.40;99.90
13049;DHT22;6591;51.446;5.404;2023-02-21T05:24:33;10.40;99.90
13049;DHT22;6591;51.446;5.404;2023-02-21T05:27:00;10.40;99.90
13049;DHT22;6591;51.446;5.404;2023-02-21T05:29:28;10.60;99.90
13049;DHT22;6591;51.446;5.404;2023-02-21T05:31:55;10.10;99.90
13049;DHT22;6591;51.446;5.404;2023-02-21T05:34:22;11.60;99.90
13049;DHT22;6591;51.446;5.404;2023-02-21T05:36:49;10.40;99.90
13049;DHT22;6591;51.446;5.404;2023-02-21T05:39:16;10.50;99.90
13049;DHT22;6591;51.446;5.404;2023-02-21T05:41:50;10.40;99.90
13049;DHT22;6591;51.446;5.404;2023-02-21T05:44:17;10.40;99.90
13049;DHT22;6591;51.446;5.404;2023-02-21T05:46:44;10.30;99.90
13049;DHT22;6591;51.446;5.404;2023-02-21T05:49:12;10.30;99.90
13049;DHT22;6591;51.446;5.404;2023-02-21T05:51:41;11.30;99.90
13049;DHT22;6591;51.446;5.404;2023-02-21T05:54:14;10.30;99.90
13049;DHT22;6591;51.446;5.404;2023-02-21T05:56:44;10.80;99.90
13049;DHT22;6591;51.446;5.404;2023-02-21T05:59:13;10.30;99.90
13049;DHT22;6591;51.446;5.404;2023-02-21T06:01:42;12.00;99.90
13049;DHT22;6591;51.446;5.404;2023-02-21T06:04:09;10.30;99.90
13049;DHT22;6591;51.446;5.404;2023-02-21T06:06:36;10.70;99.90
13049;DHT22;6591;51.446;5.404;2023-02-21T06:09:04;10.30;99.90
13049;DHT22;6591;51.446;5.404;2023-02-21T06:11:33;10.50;99.90
13049;DHT22;6591;51.446;5.404;2023-02-21T06:14:06;10.30;99.90
13049;DHT22;6591;51.446;5.404;2023-02-21T06:16:38;11.30;99.90
13049;DHT22;6591;51.446;5.404;2023-02-21T06:19:06;10.20;99.90
13049;DHT22;6591;51.446;5.404;2023-02-21T06:21:35;10.30;99.90
13049;DHT22;6591;51.446;5.404;2023-02-21T06:24:03;10.30;99.90
13049;DHT22;6591;51.446;5.404;2023-02-21T06:26:31;10.20;99.90
13049;DHT22;6591;51.446;5.404;2023-02-21T06:28:58;11.30;99.90
13049;DHT22;6591;51.446;5.404;2023-02-21T06:31:26;10.20;99.90
13049;DHT22;6591;51.446;5.404;2023-02-21T06:33:53;10.20;99.90
13049;DHT22;6591;51.446;5.404;2023-02-21T06:36:24;10.20;99.90
13049;DHT22;6591;51.446;5.404;2023-02-21T06:38:54;10.20;99.90
13049;DHT22;6591;51.446;5.404;2023-02-21T06:41:26;10.20;99.90
13049;DHT22;6591;51.446;5.404;2023-02-21T06:43:57;10.20;99.90
13049;DHT22;6591;51.446;5.404;2023-02-21T06:46:28;10.20;99.90
13049;DHT22;6591;51.446;5.404;2023-02-21T06:48:56;10.30;99.90
13049;DHT22;6591;51.446;5.404;2023-02-21T06:51:23;10.20;99.90
13049;DHT22;6591;51.446;5.404;2023-02-21T06:53:56;10.20;99.90
13049;DHT22;6591;51.446;5.404;2023-02-21T06:56:23;10.20;99.90
13049;DHT22;6591;51.446;5.404;2023-02-21T06:58:51;10.20;99.90
13049;DHT22;6591;51.446;5.404;2023-02-21T07:01:18;10.20;99.90
13049;DHT22;6591;51.446;5.404;2023-02-21T07:03:46;10.20;99.90
13049;DHT22;6591;51.446;5.404;2023-02-21T07:06:13;10.20;99.90
13049;DHT22;6591;51.446;5.404;2023-02-21T07:08:41;10.20;99.90
13049;DHT22;6591;51.446;5.404;2023-02-21T07:11:08;10.20;99.90
13049;DHT22;6591;51.446;5.404;2023-02-21T07:13:36;10.70;99.90
13049;DHT22;6591;51.446;5.404;2023-02-21T07:16:04;10.20;99.90
13049;DHT22;6591;51.446;5.404;2023-02-21T07:18:31;10.20;99.90
13049;DHT22;6591;51.446;5.404;2023-02-21T07:20:59;10.20;99.90
13049;DHT22;6591;51.446;5.404;2023-02-21T07:23:27;11.20;99.90
13049;DHT22;6591;51.446;5.404;2023-02-21T07:25:54;10.20;99.90
13049;DHT22;6591;51.446;5.404;2023-02-21T07:28:24;10.40;99.90
13049;DHT22;6591;51.446;5.404;2023-02-21T07:30:51;10.10;99.90
13049;DHT22;6591;51.446;5.404;2023-02-21T07:33:18;10.10;99.90
13049;DHT22;6591;51.446;5.404;2023-02-21T07:35:45;10.10;99.90
13049;DHT22;6591;51.446;5.404;2023-02-21T07:38:23;10.10;99.90
13049;DHT22;6591;51.446;5.404;2023-02-21T07:40:57;10.10;99.90
13049;DHT22;6591;51.446;5.404;2023-02-21T07:43:26;10.10;99.90
13049;DHT22;6591;51.446;5.404;2023-02-21T07:45:55;10.10;99.90
13049;DHT22;6591;51.446;5.404;2023-02-21T07:48:23;10.50;99.90
13049;DHT22;6591;51.446;5.404;2023-02-21T07:50:50;10.00;99.90
13049;DHT22;6591;51.446;5.404;2023-02-21T07:53:17;10.00;99.90
13049;DHT22;6591;51.446;5.404;2023-02-21T07:55:44;10.00;99.90
13049;DHT22;6591;51.446;5.404;2023-02-21T07:58:11;10.00;99.90
13049;DHT22;6591;51.446;5.404;2023-02-21T08:00:38;10.00;99.90
13049;DHT22;6591;51.446;5.404;2023-02-21T08:03:06;11.60;99.90
13049;DHT22;6591;51.446;5.404;2023-02-21T08:05:33;10.00;99.90
13049;DHT22;6591;51.446;5.404;2023-02-21T08:08:01;11.40;99.90
13049;DHT22;6591;51.446;5.404;2023-02-21T08:10:28;11.30;99.90
13049;DHT22;6591;51.446;5.404;2023-02-21T08:12:55;10.10;99.90
13049;DHT22;6591;51.446;5.404;2023-02-21T08:15:22;10.10;99.90
13049;DHT22;6591;51.446;5.404;2023-02-21T08:17:50;10.10;99.90
13049;DHT22;6591;51.446;5.404;2023-02-21T08:20:18;11.80;99.90
13049;DHT22;6591;51.446;5.404;2023-02-21T08:22:45;10.20;99.90
13049;DHT22;6591;51.446;5.404;2023-02-21T08:25:14;10.20;99.90
13049;DHT22;6591;51.446;5.404;2023-02-21T08:27:43;10.20;99.90
13049;DHT22;6591;51.446;5.404;2023-02-21T08:30:14;10.20;99.90
13049;DHT22;6591;51.446;5.404;2023-02-21T08:32:43;10.20;99.90
13049;DHT22;6591;51.446;5.404;2023-02-21T08:35:15;11.80;99.90
13049;DHT22;6591;51.446;5.404;2023-02-21T08:37:47;10.30;99.90
13049;DHT22;6591;51.446;5.404;2023-02-21T08:40:18;10.30;99.90
13049;DHT22;6591;51.446;5.404;2023-02-21T08:42:50;10.30;99.90
13049;DHT22;6591;51.446;5.404;2023-02-21T08:45:20;10.30;99.90
13049;DHT22;6591;51.446;5.404;2023-02-21T08:47:51;10.30;99.90
13049;DHT22;6591;51.446;5.404;2023-02-21T08:50:21;10.30;99.90
13049;DHT22;6591;51.446;5.404;2023-02-21T08:52:49;10.30;99.90
13049;DHT22;6591;51.446;5.404;2023-02-21T08:55:18;10.30;99.90
13049;DHT22;6591;51.446;5.404;2023-02-21T08:57:50;10.40;99.90
13049;DHT22;6591;51.446;5.404;2023-02-21T09:00:20;10.40;99.90
13049;DHT22;6591;51.446;5.404;2023-02-21T09:02:50;10.40;99.90
13049;DHT22;6591;51.446;5.404;2023-02-21T09:05:21;10.40;99.90
13049;DHT22;6591;51.446;5.404;2023-02-21T09:07:55;10.50;99.90
13049;DHT22;6591;51.446;5.404;2023-02-21T09:10:29;11.40;99.90
13049;DHT22;6591;51.446;5.404;2023-02-21T09:13:04;10.60;99.90
13049;DHT22;6591;51.446;5.404;2023-02-21T09:15:31;11.20;99.90
13049;DHT22;6591;51.446;5.404;2023-02-21T09:17:58;10.60;99.90
13049;DHT22;6591;51.446;5.404;2023-02-21T09:20:27;10.70;99.90
13049;DHT22;6591;51.446;5.404;2023-02-21T09:22:54;10.70;99.90
13049;DHT22;6591;51.446;5.404;2023-02-21T09:25:26;11.70;99.90
13049;DHT22;6591;51.446;5.404;2023-02-21T09:27:53;11.60;99.90
13049;DHT22;6591;51.446;5.404;2023-02-21T09:30:23;10.80;99.90
13049;DHT22;6591;51.446;5.404;2023-02-21T09:32:52;10.90;99.90
13049;DHT22;6591;51.446;5.404;2023-02-21T09:35:23;10.90;99.90
13049;DHT22;6591;51.446;5.404;2023-02-21T09:37:51;11.00;99.90
13049;DHT22;6591;51.446;5.404;2023-02-21T09:43:10;11.00;99.90
13049;DHT22;6591;51.446;5.404;2023-02-21T09:45:42;12.10;99.90
13049;DHT22;6591;51.446;5.404;2023-02-21T09:48:13;11.10;99.90
13049;DHT22;6591;51.446;5.404;2023-02-21T09:50:46;11.10;99.90
13049;DHT22;6591;51.446;5.404;2023-02-21T09:53:29;11.10;99.90
13049;DHT22;6591;51.446;5.404;2023-02-21T09:56:04;11.20;99.90
13049;DHT22;6591;51.446;5.404;2023-02-21T09:58:31;11.20;99.90
13049;DHT22;6591;51.446;5.404;2023-02-21T10:01:05;13.10;99.90
13049;DHT22;6591;51.446;5.404;2023-02-21T10:03:53;11.30;99.90
13049;DHT22;6591;51.446;5.404;2023-02-21T10:06:34;11.40;99.90
13049;DHT22;6591;51.446;5.404;2023-02-21T10:09:51;11.40;99.90
13049;DHT22;6591;51.446;5.404;2023-02-21T10:21:33;11.50;99.90
13049;DHT22;6591;51.446;5.404;2023-02-21T10:24:12;11.50;99.90
13049;DHT22;6591;51.446;5.404;2023-02-21T10:26:45;11.10;99.90
13049;DHT22;6591;51.446;5.404;2023-02-21T10:29:22;11.10;99.90
13049;DHT22;6591;51.446;5.404;2023-02-21T10:32:00;11.60;99.90
13049;DHT22;6591;51.446;5.404;2023-02-21T10:34:31;11.50;99.90
13049;DHT22;6591;51.446;5.404;2023-02-21T10:37:32;11.50;99.90
13049;DHT22;6591;51.446;5.404;2023-02-21T10:40:44;11.50;99.90
13049;DHT22;6591;51.446;5.404;2023-02-21T10:46:28;11.60;99.90
13049;DHT22;6591;51.446;5.404;2023-02-21T10:49:22;11.50;99.90
13049;DHT22;6591;51.446;5.404;2023-02-21T10:52:16;11.60;99.90
13049;DHT22;6591;51.446;5.404;2023-02-21T10:55:06;11.60;99.90
13049;DHT22;6591;51.446;5.404;2023-02-21T10:57:58;11.60;99.90
13049;DHT22;6591;51.446;5.404;2023-02-21T11:00:43;11.60;99.90
13049;DHT22;6591;51.446;5.404;2023-02-21T11:05:49;11.60;99.90
13049;DHT22;6591;51.446;5.404;2023-02-21T11:08:52;12.10;99.90
13049;DHT22;6591;51.446;5.404;2023-02-21T11:11:38;11.70;99.90
13049;DHT22;6591;51.446;5.404;2023-02-21T11:14:21;13.00;99.90
13049;DHT22;6591;51.446;5.404;2023-02-21T11:17:06;11.80;99.90
13049;DHT22;6591;51.446;5.404;2023-02-21T11:22:37;11.90;99.90
13049;DHT22;6591;51.446;5.404;2023-02-21T11:28:24;12.10;99.90
13049;DHT22;6591;51.446;5.404;2023-02-21T11:34:04;12.20;99.90
13049;DHT22;6591;51.446;5.404;2023-02-21T11:36:35;13.00;99.90
13049;DHT22;6591;51.446;5.404;2023-02-21T11:42:02;12.30;99.90
13049;DHT22;6591;51.446;5.404;2023-02-21T11:44:33;13.20;99.90
13049;DHT22;6591;51.446;5.404;2023-02-21T11:47:26;12.50;99.90
13049;DHT22;6591;51.446;5.404;2023-02-21T11:50:18;12.50;99.90
13049;DHT22;6591;51.446;5.404;2023-02-21T11:53:15;12.50;99.90
13049;DHT22;6591;51.446;5.404;2023-02-21T11:56:20;12.60;99.90
13049;DHT22;6591;51.446;5.404;2023-02-21T12:04:44;13.60;99.90
13049;DHT22;6591;51.446;5.404;2023-02-21T12:15:50;13.20;99.90
13049;DHT22;6591;51.446;5.404;2023-02-21T12:27:00;13.40;99.90
13049;DHT22;6591;51.446;5.404;2023-02-21T12:36:16;13.50;99.90
13049;DHT22;6591;51.446;5.404;2023-02-21T12:45:47;13.50;99.90
13049;DHT22;6591;51.446;5.404;2023-02-21T12:48:50;13.50;99.90
13049;DHT22;6591;51.446;5.404;2023-02-21T12:51:37;13.50;99.90
13049;DHT22;6591;51.446;5.404;2023-02-21T12:54:18;13.40;99.90
13049;DHT22;6591;51.446;5.404;2023-02-21T12:56:59;13.40;99.90
13049;DHT22;6591;51.446;5.404;2023-02-21T12:59:49;13.40;99.90
13049;DHT22;6591;51.446;5.404;2023-02-21T13:06:05;14.90;99.90
13049;DHT22;6591;51.446;5.404;2023-02-21T13:08:55;13.40;99.90
13049;DHT22;6591;51.446;5.404;2023-02-21T13:14:26;14.50;99.90
13049;DHT22;6591;51.446;5.404;2023-02-21T13:16:58;13.40;99.90
13049;DHT22;6591;51.446;5.404;2023-02-21T13:19:33;13.40;99.90
13049;DHT22;6591;51.446;5.404;2023-02-21T13:28:32;13.20;99.90
13049;DHT22;6591;51.446;5.404;2023-02-21T13:31:06;13.10;99.90
13049;DHT22;6591;51.446;5.404;2023-02-21T13:33:54;13.10;99.90
13049;DHT22;6591;51.446;5.404;2023-02-21T13:36:41;13.10;99.90
13049;DHT22;6591;51.446;5.404;2023-02-21T13:39:31;13.10;99.90
13049;DHT22;6591;51.446;5.404;2023-02-21T13:42:15;13.10;99.90
13049;DHT22;6591;51.446;5.404;2023-02-21T13:45:35;13.10;99.90
13049;DHT22;6591;51.446;5.404;2023-02-21T13:58:44;12.80;99.90
13049;DHT22;6591;51.446;5.404;2023-02-21T14:03:56;12.70;99.90
13049;DHT22;6591;51.446;5.404;2023-02-21T14:06:27;12.60;99.90
13049;DHT22;6591;51.446;5.404;2023-02-21T14:09:05;12.60;99.90
13049;DHT22;6591;51.446;5.404;2023-02-21T14:11:43;12.50;99.90
13049;DHT22;6591;51.446;5.404;2023-02-21T14:14:30;12.40;99.90
13049;DHT22;6591;51.446;5.404;2023-02-21T14:17:03;12.30;99.90
13049;DHT22;6591;51.446;5.404;2023-02-21T14:19:45;12.40;99.90
13049;DHT22;6591;51.446;5.404;2023-02-21T14:22:23;12.20;99.90
13049;DHT22;6591;51.446;5.404;2023-02-21T14:25:06;12.20;99.90
13049;DHT22;6591;51.446;5.404;2023-02-21T14:27:42;12.20;99.90
13049;DHT22;6591;51.446;5.404;2023-02-21T14:32:42;12.20;99.90
13049;DHT22;6591;51.446;5.404;2023-02-21T14:38:03;12.30;99.90
13049;DHT22;6591;51.446;5.404;2023-02-21T14:52:40;12.30;99.90
13049;DHT22;6591;51.446;5.404;2023-02-21T15:07:25;12.30;99.90
13049;DHT22;6591;51.446;5.404;2023-02-21T15:10:24;12.20;99.90
13049;DHT22;6591;51.446;5.404;2023-02-21T15:13:02;12.10;99.90
13049;DHT22;6591;51.446;5.404;2023-02-21T15:15:41;12.00;99.90
13049;DHT22;6591;51.446;5.404;2023-02-21T15:18:32;11.90;99.90
13049;DHT22;6591;51.446;5.404;2023-02-21T15:23:45;11.90;99.90
13049;DHT22;6591;51.446;5.404;2023-02-21T15:26:30;11.70;99.90
13049;DHT22;6591;51.446;5.404;2023-02-21T15:29:07;11.70;99.90
13049;DHT22;6591;51.446;5.404;2023-02-21T15:31:55;11.60;99.90
13049;DHT22;6591;51.446;5.404;2023-02-21T15:34:31;11.60;99.90
13049;DHT22;6591;51.446;5.404;2023-02-21T15:37:34;11.50;99.90
13049;DHT22;6591;51.446;5.404;2023-02-21T15:40:12;11.50;99.90
13049;DHT22;6591;51.446;5.404;2023-02-21T15:42:47;11.40;99.90
13049;DHT22;6591;51.446;5.404;2023-02-21T15:45:43;11.40;99.90
13049;DHT22;6591;51.446;5.404;2023-02-21T15:48:15;11.40;99.90
13049;DHT22;6591;51.446;5.404;2023-02-21T15:50:44;11.30;99.90
13049;DHT22;6591;51.446;5.404;2023-02-21T15:55:52;11.20;99.90
13049;DHT22;6591;51.446;5.404;2023-02-21T15:58:25;11.20;99.90
13049;DHT22;6591;51.446;5.404;2023-02-21T16:01:05;11.10;99.90
13049;DHT22;6591;51.446;5.404;2023-02-21T16:03:42;11.10;99.90
13049;DHT22;6591;51.446;5.404;2023-02-21T16:06:24;11.20;99.90
13049;DHT22;6591;51.446;5.404;2023-02-21T16:11:55;10.90;99.90
13049;DHT22;6591;51.446;5.404;2023-02-21T16:14:38;10.90;99.90
13049;DHT22;6591;51.446;5.404;2023-02-21T16:17:26;10.90;99.90
13049;DHT22;6591;51.446;5.404;2023-02-21T16:19:55;10.80;99.90
13049;DHT22;6591;51.446;5.404;2023-02-21T16:25:07;10.70;99.90
13049;DHT22;6591;51.446;5.404;2023-02-21T16:27:38;10.70;99.90
13049;DHT22;6591;51.446;5.404;2023-02-21T16:30:10;11.40;99.90
13049;DHT22;6591;51.446;5.404;2023-02-21T16:33:00;10.60;99.90
13049;DHT22;6591;51.446;5.404;2023-02-21T16:35:29;10.90;99.90
13049;DHT22;6591;51.446;5.404;2023-02-21T16:37:59;10.60;99.90
13049;DHT22;6591;51.446;5.404;2023-02-21T16:40:32;11.00;99.90
13049;DHT22;6591;51.446;5.404;2023-02-21T16:43:03;10.60;99.90
13049;DHT22;6591;51.446;5.404;2023-02-21T16:45:31;11.90;99.90
13049;DHT22;6591;51.446;5.404;2023-02-21T16:48:03;10.60;99.90
13049;DHT22;6591;51.446;5.404;2023-02-21T16:50:37;10.50;99.90
13049;DHT22;6591;51.446;5.404;2023-02-21T16:53:06;10.50;99.90
13049;DHT22;6591;51.446;5.404;2023-02-21T16:55:38;11.00;99.90
13049;DHT22;6591;51.446;5.404;2023-02-21T16:58:10;10.50;99.90
13049;DHT22;6591;51.446;5.404;2023-02-21T17:01:02;10.40;99.90
13049;DHT22;6591;51.446;5.404;2023-02-21T17:03:32;11.90;99.90
13049;DHT22;6591;51.446;5.404;2023-02-21T17:05:59;10.40;99.90
13049;DHT22;6591;51.446;5.404;2023-02-21T17:08:27;11.00;99.90
13049;DHT22;6591;51.446;5.404;2023-02-21T17:10:55;10.50;99.90
13049;DHT22;6591;51.446;5.404;2023-02-21T17:13:24;10.40;99.90
13049;DHT22;6591;51.446;5.404;2023-02-21T17:15:51;10.30;99.90
13049;DHT22;6591;51.446;5.404;2023-02-21T17:18:20;10.20;99.90
13049;DHT22;6591;51.446;5.404;2023-02-21T17:20:47;10.20;99.90
13049;DHT22;6591;51.446;5.404;2023-02-21T17:23:14;10.80;99.90
13049;DHT22;6591;51.446;5.404;2023-02-21T17:25:41;10.10;99.90
13049;DHT22;6591;51.446;5.404;2023-02-21T17:28:08;10.10;99.90
13049;DHT22;6591;51.446;5.404;2023-02-21T17:30:36;10.20;99.90
13049;DHT22;6591;51.446;5.404;2023-02-21T17:33:04;10.00;99.90
13049;DHT22;6591;51.446;5.404;2023-02-21T17:35:31;10.10;99.90
13049;DHT22;6591;51.446;5.404;2023-02-21T17:37:58;10.10;99.90
13049;DHT22;6591;51.446;5.404;2023-02-21T17:40:28;10.00;99.90
13049;DHT22;6591;51.446;5.404;2023-02-21T17:42:56;10.20;99.90
13049;DHT22;6591;51.446;5.404;2023-02-21T17:45:24;10.10;99.90
13049;DHT22;6591;51.446;5.404;2023-02-21T17:47:52;10.10;99.90
13049;DHT22;6591;51.446;5.404;2023-02-21T17:50:22;10.10;99.90
13049;DHT22;6591;51.446;5.404;2023-02-21T17:52:51;11.40;99.90
13049;DHT22;6591;51.446;5.404;2023-02-21T17:55:21;11.40;99.90
13049;DHT22;6591;51.446;5.404;2023-02-21T17:57:52;10.10;99.90
13049;DHT22;6591;51.446;5.404;2023-02-21T18:00:21;10.20;99.90
13049;DHT22;6591;51.446;5.404;2023-02-21T18:02:52;10.20;99.90
13049;DHT22;6591;51.446;5.404;2023-02-21T18:05:21;10.20;99.90
13049;DHT22;6591;51.446;5.404;2023-02-21T18:07:51;10.20;99.90
13049;DHT22;6591;51.446;5.404;2023-02-21T18:10:20;10.40;99.90
13049;DHT22;6591;51.446;5.404;2023-02-21T18:12:50;10.40;99.90
13049;DHT22;6591;51.446;5.404;2023-02-21T18:15:20;10.70;99.90
13049;DHT22;6591;51.446;5.404;2023-02-21T18:17:49;10.20;99.90
13049;DHT22;6591;51.446;5.404;2023-02-21T18:20:16;10.70;99.90
13049;DHT22;6591;51.446;5.404;2023-02-21T18:22:43;10.20;99.90
13049;DHT22;6591;51.446;5.404;2023-02-21T18:25:12;11.20;99.90
13049;DHT22;6591;51.446;5.404;2023-02-21T18:27:41;10.30;99.90
13049;DHT22;6591;51.446;5.404;2023-02-21T18:30:09;10.30;99.90
13049;DHT22;6591;51.446;5.404;2023-02-21T18:32:37;10.30;99.90
13049;DHT22;6591;51.446;5.404;2023-02-21T18:35:04;10.30;99.90
13049;DHT22;6591;51.446;5.404;2023-02-21T18:37:33;10.30;99.90
13049;DHT22;6591;51.446;5.404;2023-02-21T18:40:01;12.10;99.90
13049;DHT22;6591;51.446;5.404;2023-02-21T18:42:31;11.20;99.90
13049;DHT22;6591;51.446;5.404;2023-02-21T18:44:58;10.40;99.90
13049;DHT22;6591;51.446;5.404;2023-02-21T18:47:26;10.40;99.90
13049;DHT22;6591;51.446;5.404;2023-02-21T18:49:53;10.40;99.90
13049;DHT22;6591;51.446;5.404;2023-02-21T18:52:23;9.00;99.90
13049;DHT22;6591;51.446;5.404;2023-02-21T18:54:51;10.40;99.90
13049;DHT22;6591;51.446;5.404;2023-02-21T18:57:19;10.40;99.90
13049;DHT22;6591;51.446;5.404;2023-02-21T18:59:48;10.40;99.90
13049;DHT22;6591;51.446;5.404;2023-02-21T19:02:17;10.40;99.90
13049;DHT22;6591;51.446;5.404;2023-02-21T19:04:45;10.30;99.90
13049;DHT22;6591;51.446;5.404;2023-02-21T19:07:13;10.30;99.90
13049;DHT22;6591;51.446;5.404;2023-02-21T19:09:46;10.20;99.90
13049;DHT22;6591;51.446;5.404;2023-02-21T19:12:16;10.20;99.90